sensor_id;sensor_type;location;lat;lon;timestamp;pressure;altitude;pressure_sealevel;temperature;humidity
59971;BME280;45825;45.434;9.116;2023-03-15T00:01:58;99271.34;;;12.04;33.06
59971;BME280;45825;45.434;9.116;2023-03-15T00:04:24;99262.09;;;11.98;33.08
59971;BME280;45825;45.434;9.116;2023-03-15T00:06:50;99267.25;;;11.99;33.47
59971;BME280;45825;45.434;9.116;2023-03-15T00:09:16;99264.59;;;11.99;33.24
59971;BME280;45825;45.434;9.116;2023-03-15T00:11:41;99278.25;;;11.93;33.42
59971;BME280;45825;45.434;9.116;2023-03-15T00:14:07;99283.78;;;11.90;33.02
59971;BME280;45825;45.434;9.116;2023-03-15T00:16:32;99284.59;;;11.91;32.02
59971;BME280;45825;45.434;9.116;2023-03-15T00:18:58;99305.56;;;11.92;32.37
59971;BME280;45825;45.434;9.116;2023-03-15T00:21:23;99293.09;;;11.94;32.80
59971;BME280;45825;45.434;9.116;2023-03-15T00:23:49;99299.44;;;11.92;32.34
59971;BME280;45825;45.434;9.116;2023-03-15T00:26:14;99304.50;;;11.95;32.21
59971;BME280;45825;45.434;9.116;2023-03-15T00:28:40;99301.97;;;11.93;31.58
59971;BME280;45825;45.434;9.116;2023-03-15T00:31:17;99303.66;;;11.94;31.55
59971;BME280;45825;45.434;9.116;2023-03-15T00:33:43;99309.88;;;11.93;30.03
59971;BME280;45825;45.434;9.116;2023-03-15T00:36:10;99316.59;;;11.97;29.24
59971;BME280;45825;45.434;9.116;2023-03-15T00:38:36;99302.59;;;11.97;28.25
59971;BME280;45825;45.434;9.116;2023-03-15T00:41:21;99314.03;;;12.09;27.86
59971;BME280;45825;45.434;9.116;2023-03-15T00:43:47;99301.22;;;12.15;27.77
59971;BME280;45825;45.434;9.116;2023-03-15T00:46:13;99317.03;;;12.15;27.61
59971;BME280;45825;45.434;9.116;2023-03-15T00:48:39;99311.16;;;12.12;28.43
59971;BME280;45825;45.434;9.116;2023-03-15T00:51:07;99313.78;;;12.12;27.72
59971;BME280;45825;45.434;9.116;2023-03-15T00:53:34;99314.75;;;12.11;29.02
59971;BME280;45825;45.434;9.116;2023-03-15T00:56:12;99304.91;;;12.13;28.08
59971;BME280;45825;45.434;9.116;2023-03-15T00:58:38;99315.34;;;12.03;28.21
59971;BME280;45825;45.434;9.116;2023-03-15T01:01:08;99310.50;;;11.97;27.87
59971;BME280;45825;45.434;9.116;2023-03-15T01:03:34;99316.72;;;11.96;27.03
59971;BME280;45825;45.434;9.116;2023-03-15T01:06:22;99313.94;;;11.97;28.17
59971;BME280;45825;45.434;9.116;2023-03-15T01:08:48;99319.47;;;11.94;27.32
59971;BME280;45825;45.434;9.116;2023-03-15T01:11:16;99316.06;;;12.05;27.21
59971;BME280;45825;45.434;9.116;2023-03-15T01:13:42;99318.81;;;12.04;27.94
59971;BME280;45825;45.434;9.116;2023-03-15T01:16:10;99327.66;;;12.02;28.00
59971;BME280;45825;45.434;9.116;2023-03-15T01:18:36;99322.72;;;11.98;27.52
59971;BME280;45825;45.434;9.116;2023-03-15T01:21:04;99319.38;;;11.96;28.02
59971;BME280;45825;45.434;9.116;2023-03-15T01:23:30;99329.41;;;11.91;27.59
59971;BME280;45825;45.434;9.116;2023-03-15T01:25:59;99332.19;;;11.89;28.64
59971;BME280;45825;45.434;9.116;2023-03-15T01:28:24;99332.38;;;11.86;27.32
59971;BME280;45825;45.434;9.116;2023-03-15T01:30:51;99332.53;;;11.84;27.94
59971;BME280;45825;45.434;9.116;2023-03-15T01:33:16;99330.94;;;11.82;27.40
59971;BME280;45825;45.434;9.116;2023-03-15T01:35:42;99320.41;;;11.82;28.29
59971;BME280;45825;45.434;9.116;2023-03-15T01:38:08;99330.00;;;11.83;28.17
59971;BME280;45825;45.434;9.116;2023-03-15T01:40:33;99317.50;;;11.73;28.42
59971;BME280;45825;45.434;9.116;2023-03-15T01:56:46;99319.00;;;11.53;27.08
59971;BME280;45825;45.434;9.116;2023-03-15T01:59:20;99318.53;;;11.59;28.51
59971;BME280;45825;45.434;9.116;2023-03-15T02:01:46;99318.78;;;11.56;28.38
59971;BME280;45825;45.434;9.116;2023-03-15T02:04:16;99317.94;;;11.56;28.80
59971;BME280;45825;45.434;9.116;2023-03-15T02:06:44;99322.22;;;11.45;28.62
59971;BME280;45825;45.434;9.116;2023-03-15T02:09:13;99332.38;;;11.39;27.16
59971;BME280;45825;45.434;9.116;2023-03-15T02:11:40;99330.91;;;11.35;27.85
59971;BME280;45825;45.434;9.116;2023-03-15T02:14:07;99331.53;;;11.38;28.12
59971;BME280;45825;45.434;9.116;2023-03-15T02:16:33;99331.75;;;11.35;28.63
59971;BME280;45825;45.434;9.116;2023-03-15T02:18:59;99331.47;;;11.27;27.89
59971;BME280;45825;45.434;9.116;2023-03-15T02:21:34;99344.75;;;11.25;28.09
59971;BME280;45825;45.434;9.116;2023-03-15T02:26:55;99354.53;;;11.23;28.68
59971;BME280;45825;45.434;9.116;2023-03-15T02:29:22;99350.34;;;11.21;28.52
59971;BME280;45825;45.434;9.116;2023-03-15T02:31:50;99359.19;;;11.20;29.12
59971;BME280;45825;45.434;9.116;2023-03-15T02:34:16;99354.06;;;11.18;28.92
59971;BME280;45825;45.434;9.116;2023-03-15T02:36:41;99353.66;;;11.11;28.62
59971;BME280;45825;45.434;9.116;2023-03-15T02:39:20;99358.16;;;11.09;28.84
59971;BME280;45825;45.434;9.116;2023-03-15T02:41:49;99360.09;;;11.07;29.44
59971;BME280;45825;45.434;9.116;2023-03-15T02:44:28;99368.84;;;11.08;29.63
59971;BME280;45825;45.434;9.116;2023-03-15T02:47:03;99370.13;;;11.02;30.39
59971;BME280;45825;45.434;9.116;2023-03-15T02:49:33;99366.22;;;10.95;29.17
59971;BME280;45825;45.434;9.116;2023-03-15T02:52:00;99370.78;;;10.93;30.00
59971;BME280;45825;45.434;9.116;2023-03-15T02:54:25;99372.22;;;10.97;29.05
59971;BME280;45825;45.434;9.116;2023-03-15T02:56:51;99376.59;;;10.85;29.47
59971;BME280;45825;45.434;9.116;2023-03-15T02:59:17;99369.00;;;10.80;29.25
59971;BME280;45825;45.434;9.116;2023-03-15T03:01:42;99377.94;;;10.78;29.33
59971;BME280;45825;45.434;9.116;2023-03-15T03:04:10;99389.75;;;10.85;29.83
59971;BME280;45825;45.434;9.116;2023-03-15T03:06:35;99386.25;;;10.84;29.53
59971;BME280;45825;45.434;9.116;2023-03-15T03:09:00;99384.81;;;10.80;29.49
59971;BME280;45825;45.434;9.116;2023-03-15T03:11:27;99386.47;;;10.81;29.83
59971;BME280;45825;45.434;9.116;2023-03-15T03:13:52;99393.53;;;10.81;30.35
59971;BME280;45825;45.434;9.116;2023-03-15T03:16:17;99393.72;;;10.90;30.90
59971;BME280;45825;45.434;9.116;2023-03-15T03:18:42;99394.56;;;10.91;31.86
59971;BME280;45825;45.434;9.116;2023-03-15T03:21:08;99394.78;;;10.88;30.94
59971;BME280;45825;45.434;9.116;2023-03-15T03:23:34;99396.69;;;10.86;30.75
59971;BME280;45825;45.434;9.116;2023-03-15T03:26:00;99401.09;;;10.85;31.36
59971;BME280;45825;45.434;9.116;2023-03-15T03:28:28;99403.00;;;10.83;31.08
59971;BME280;45825;45.434;9.116;2023-03-15T03:30:54;99401.53;;;10.79;31.23
59971;BME280;45825;45.434;9.116;2023-03-15T03:33:21;99403.63;;;10.87;31.28
59971;BME280;45825;45.434;9.116;2023-03-15T03:35:47;99405.41;;;10.86;31.29
59971;BME280;45825;45.434;9.116;2023-03-15T03:38:13;99410.81;;;10.72;30.90
59971;BME280;45825;45.434;9.116;2023-03-15T03:40:39;99417.97;;;10.70;30.24
59971;BME280;45825;45.434;9.116;2023-03-15T03:43:06;99412.72;;;10.70;29.98
59971;BME280;45825;45.434;9.116;2023-03-15T03:45:32;99419.31;;;10.75;30.03
59971;BME280;45825;45.434;9.116;2023-03-15T03:47:57;99426.78;;;10.82;30.70
59971;BME280;45825;45.434;9.116;2023-03-15T03:50:22;99418.56;;;10.86;30.88
59971;BME280;45825;45.434;9.116;2023-03-15T03:52:48;99421.63;;;10.80;29.24
59971;BME280;45825;45.434;9.116;2023-03-15T03:55:13;99421.63;;;10.80;30.23
59971;BME280;45825;45.434;9.116;2023-03-15T03:57:42;99424.38;;;10.79;30.21
59971;BME280;45825;45.434;9.116;2023-03-15T04:00:09;99424.47;;;10.77;29.80
59971;BME280;45825;45.434;9.116;2023-03-15T04:02:36;99425.41;;;10.76;29.44
59971;BME280;45825;45.434;9.116;2023-03-15T04:05:01;99423.84;;;10.73;29.99
59971;BME280;45825;45.434;9.116;2023-03-15T04:07:27;99427.94;;;10.78;30.85
59971;BME280;45825;45.434;9.116;2023-03-15T04:09:52;99425.22;;;10.79;29.86
59971;BME280;45825;45.434;9.116;2023-03-15T04:12:17;99432.16;;;10.80;29.83
59971;BME280;45825;45.434;9.116;2023-03-15T04:14:43;99427.94;;;10.78;30.07
59971;BME280;45825;45.434;9.116;2023-03-15T04:17:08;99435.84;;;10.78;30.88
59971;BME280;45825;45.434;9.116;2023-03-15T04:19:34;99432.59;;;10.74;30.24
59971;BME280;45825;45.434;9.116;2023-03-15T04:22:00;99440.25;;;10.77;31.28
59971;BME280;45825;45.434;9.116;2023-03-15T04:24:33;99446.16;;;10.81;31.35
59971;BME280;45825;45.434;9.116;2023-03-15T04:26:59;99446.16;;;10.81;30.94
59971;BME280;45825;45.434;9.116;2023-03-15T04:29:25;99449.09;;;10.76;31.28
59971;BME280;45825;45.434;9.116;2023-03-15T04:31:50;99460.91;;;10.83;31.05
59971;BME280;45825;45.434;9.116;2023-03-15T04:34:15;99455.41;;;10.86;31.67
59971;BME280;45825;45.434;9.116;2023-03-15T04:36:40;99471.09;;;10.88;30.85
59971;BME280;45825;45.434;9.116;2023-03-15T04:39:07;99479.09;;;10.86;31.15
59971;BME280;45825;45.434;9.116;2023-03-15T04:41:32;99487.84;;;10.87;32.08
59971;BME280;45825;45.434;9.116;2023-03-15T04:44:04;99489.84;;;10.83;31.96
59971;BME280;45825;45.434;9.116;2023-03-15T04:46:30;99487.94;;;10.85;31.95
59971;BME280;45825;45.434;9.116;2023-03-15T04:48:56;99492.25;;;10.86;32.19
59971;BME280;45825;45.434;9.116;2023-03-15T04:51:22;99499.41;;;10.84;31.41
59971;BME280;45825;45.434;9.116;2023-03-15T04:53:47;99501.41;;;10.81;31.77
59971;BME280;45825;45.434;9.116;2023-03-15T04:56:12;99504.78;;;10.83;31.46
59971;BME280;45825;45.434;9.116;2023-03-15T04:58:38;99510.91;;;10.83;32.57
59971;BME280;45825;45.434;9.116;2023-03-15T05:01:03;99509.31;;;10.81;32.25
59971;BME280;45825;45.434;9.116;2023-03-15T05:03:28;99503.22;;;10.80;32.98
59971;BME280;45825;45.434;9.116;2023-03-15T05:05:54;99523.50;;;10.78;32.90
59971;BME280;45825;45.434;9.116;2023-03-15T05:08:19;99517.31;;;10.66;31.94
59971;BME280;45825;45.434;9.116;2023-03-15T05:10:44;99523.53;;;10.65;32.07
59971;BME280;45825;45.434;9.116;2023-03-15T05:13:10;99531.63;;;10.62;32.78
59971;BME280;45825;45.434;9.116;2023-03-15T05:15:35;99538.88;;;10.58;32.45
59971;BME280;45825;45.434;9.116;2023-03-15T05:18:00;99541.69;;;10.55;32.32
59971;BME280;45825;45.434;9.116;2023-03-15T05:20:26;99540.97;;;10.53;32.53
59971;BME280;45825;45.434;9.116;2023-03-15T05:22:51;99544.09;;;10.45;31.88
59971;BME280;45825;45.434;9.116;2023-03-15T05:25:19;99560.53;;;10.49;32.09
59971;BME280;45825;45.434;9.116;2023-03-15T05:27:45;99563.38;;;10.46;32.80
59971;BME280;45825;45.434;9.116;2023-03-15T05:30:11;99568.44;;;10.49;32.15
59971;BME280;45825;45.434;9.116;2023-03-15T05:32:37;99569.06;;;10.53;32.55
59971;BME280;45825;45.434;9.116;2023-03-15T05:35:05;99571.25;;;10.46;32.53
59971;BME280;45825;45.434;9.116;2023-03-15T05:37:31;99577.34;;;10.46;33.19
59971;BME280;45825;45.434;9.116;2023-03-15T05:39:58;99573.91;;;10.46;32.51
59971;BME280;45825;45.434;9.116;2023-03-15T05:42:24;99582.69;;;10.45;32.65
59971;BME280;45825;45.434;9.116;2023-03-15T05:44:54;99576.53;;;10.46;32.59
59971;BME280;45825;45.434;9.116;2023-03-15T05:47:20;99584.94;;;10.51;33.30
59971;BME280;45825;45.434;9.116;2023-03-15T05:49:47;99597.16;;;10.52;32.73
59971;BME280;45825;45.434;9.116;2023-03-15T05:52:13;99599.03;;;10.50;32.63
59971;BME280;45825;45.434;9.116;2023-03-15T05:54:39;99601.47;;;10.53;31.65
59971;BME280;45825;45.434;9.116;2023-03-15T05:57:04;99600.63;;;10.53;32.56
59971;BME280;45825;45.434;9.116;2023-03-15T05:59:30;99601.47;;;10.53;31.01
59971;BME280;45825;45.434;9.116;2023-03-15T06:01:55;99601.25;;;10.56;30.92
59971;BME280;45825;45.434;9.116;2023-03-15T06:04:21;99614.31;;;10.58;31.47
59971;BME280;45825;45.434;9.116;2023-03-15T06:06:47;99621.56;;;10.54;31.48
59971;BME280;45825;45.434;9.116;2023-03-15T06:09:12;99627.88;;;10.52;29.91
59971;BME280;45825;45.434;9.116;2023-03-15T06:11:37;99633.97;;;10.52;30.20
59971;BME280;45825;45.434;9.116;2023-03-15T06:14:03;99637.16;;;10.57;29.25
59971;BME280;45825;45.434;9.116;2023-03-15T06:16:28;99640.03;;;10.67;29.17
59971;BME280;45825;45.434;9.116;2023-03-15T06:18:53;99636.44;;;10.68;29.15
59971;BME280;45825;45.434;9.116;2023-03-15T06:21:19;99631.91;;;10.70;28.86
59971;BME280;45825;45.434;9.116;2023-03-15T06:23:44;99639.72;;;10.72;27.97
59971;BME280;45825;45.434;9.116;2023-03-15T06:26:10;99638.47;;;10.78;28.26
59971;BME280;45825;45.434;9.116;2023-03-15T06:28:35;99641.75;;;10.81;28.22
59971;BME280;45825;45.434;9.116;2023-03-15T06:31:07;99648.91;;;10.79;27.80
59971;BME280;45825;45.434;9.116;2023-03-15T06:33:33;99667.75;;;10.86;28.78
59971;BME280;45825;45.434;9.116;2023-03-15T06:35:59;99656.94;;;10.90;27.29
59971;BME280;45825;45.434;9.116;2023-03-15T06:38:25;99643.78;;;10.90;28.42
59971;BME280;45825;45.434;9.116;2023-03-15T06:40:50;99656.63;;;10.95;28.13
59971;BME280;45825;45.434;9.116;2023-03-15T06:43:15;99657.25;;;10.99;27.21
59971;BME280;45825;45.434;9.116;2023-03-15T06:45:47;99660.72;;;10.99;27.97
59971;BME280;45825;45.434;9.116;2023-03-15T06:48:13;99655.69;;;10.96;27.53
59971;BME280;45825;45.434;9.116;2023-03-15T06:50:39;99666.72;;;11.01;26.24
59971;BME280;45825;45.434;9.116;2023-03-15T06:53:04;99671.91;;;11.03;26.02
59971;BME280;45825;45.434;9.116;2023-03-15T06:55:30;99686.22;;;11.12;25.88
59971;BME280;45825;45.434;9.116;2023-03-15T06:57:55;99719.94;;;11.20;26.67
59971;BME280;45825;45.434;9.116;2023-03-15T07:00:21;99716.38;;;11.21;26.54
59971;BME280;45825;45.434;9.116;2023-03-15T07:02:47;99714.81;;;11.18;26.38
59971;BME280;45825;45.434;9.116;2023-03-15T07:05:12;99723.44;;;11.20;26.69
59971;BME280;45825;45.434;9.116;2023-03-15T07:07:37;99729.34;;;11.24;26.24
59971;BME280;45825;45.434;9.116;2023-03-15T07:10:03;99734.41;;;11.27;25.79
59971;BME280;45825;45.434;9.116;2023-03-15T07:12:29;99746.94;;;11.23;27.54
59971;BME280;45825;45.434;9.116;2023-03-15T07:14:54;99759.06;;;11.26;25.65
59971;BME280;45825;45.434;9.116;2023-03-15T07:17:19;99774.75;;;11.27;26.01
59971;BME280;45825;45.434;9.116;2023-03-15T07:19:45;99766.41;;;11.21;25.14
59971;BME280;45825;45.434;9.116;2023-03-15T07:22:10;99769.38;;;11.29;25.55
59971;BME280;45825;45.434;9.116;2023-03-15T07:24:35;99781.50;;;11.31;25.07
59971;BME280;45825;45.434;9.116;2023-03-15T07:27:01;99791.19;;;11.31;24.54
59971;BME280;45825;45.434;9.116;2023-03-15T07:29:26;99805.91;;;11.21;24.47
59971;BME280;45825;45.434;9.116;2023-03-15T07:31:51;99802.03;;;11.26;24.46
59971;BME280;45825;45.434;9.116;2023-03-15T07:34:17;99808.38;;;11.37;25.18
59971;BME280;45825;45.434;9.116;2023-03-15T07:36:43;99809.53;;;11.32;24.47
59971;BME280;45825;45.434;9.116;2023-03-15T07:39:08;99812.69;;;11.38;25.26
59971;BME280;45825;45.434;9.116;2023-03-15T07:41:34;99821.88;;;11.45;25.65
59971;BME280;45825;45.434;9.116;2023-03-15T07:44:00;99818.22;;;11.48;24.79
59971;BME280;45825;45.434;9.116;2023-03-15T07:46:25;99832.34;;;11.46;24.42
59971;BME280;45825;45.434;9.116;2023-03-15T07:48:51;99838.03;;;11.53;24.57
59971;BME280;45825;45.434;9.116;2023-03-15T07:51:17;99836.78;;;11.59;24.62
59971;BME280;45825;45.434;9.116;2023-03-15T07:53:42;99847.72;;;11.53;25.01
59971;BME280;45825;45.434;9.116;2023-03-15T07:56:07;99849.09;;;11.58;24.68
59971;BME280;45825;45.434;9.116;2023-03-15T07:58:32;99852.28;;;11.64;25.05
59971;BME280;45825;45.434;9.116;2023-03-15T08:00:58;99856.41;;;11.68;24.77
59971;BME280;45825;45.434;9.116;2023-03-15T08:03:24;99865.59;;;11.75;24.80
59971;BME280;45825;45.434;9.116;2023-03-15T08:05:51;99862.75;;;11.78;24.99
59971;BME280;45825;45.434;9.116;2023-03-15T08:08:16;99866.03;;;11.82;24.58
59971;BME280;45825;45.434;9.116;2023-03-15T08:10:43;99877.72;;;11.78;24.59
59971;BME280;45825;45.434;9.116;2023-03-15T08:13:09;99883.53;;;11.83;25.04
59971;BME280;45825;45.434;9.116;2023-03-15T08:15:35;99888.81;;;11.83;24.97
59971;BME280;45825;45.434;9.116;2023-03-15T08:18:00;99899.78;;;11.90;25.54
59971;BME280;45825;45.434;9.116;2023-03-15T08:20:27;99900.22;;;11.83;24.41
59971;BME280;45825;45.434;9.116;2023-03-15T08:22:52;99904.53;;;11.84;24.91
59971;BME280;45825;45.434;9.116;2023-03-15T08:25:20;99907.28;;;11.96;24.49
59971;BME280;45825;45.434;9.116;2023-03-15T08:27:46;99903.78;;;11.95;24.89
59971;BME280;45825;45.434;9.116;2023-03-15T08:30:13;99914.03;;;12.00;25.37
59971;BME280;45825;45.434;9.116;2023-03-15T08:32:41;99921.22;;;11.98;23.94
59971;BME280;45825;45.434;9.116;2023-03-15T08:35:07;99916.53;;;12.03;23.95
59971;BME280;45825;45.434;9.116;2023-03-15T08:37:33;99924.81;;;11.97;23.41
59971;BME280;45825;45.434;9.116;2023-03-15T08:39:58;99925.16;;;12.05;23.78
59971;BME280;45825;45.434;9.116;2023-03-15T08:42:32;99916.59;;;12.01;23.50
59971;BME280;45825;45.434;9.116;2023-03-15T08:44:57;99926.28;;;12.01;23.88
59971;BME280;45825;45.434;9.116;2023-03-15T08:47:24;99930.81;;;11.99;22.67
59971;BME280;45825;45.434;9.116;2023-03-15T08:49:49;99933.16;;;12.04;22.75
59971;BME280;45825;45.434;9.116;2023-03-15T08:52:17;99924.88;;;12.10;23.05
59971;BME280;45825;45.434;9.116;2023-03-15T08:54:43;99928.97;;;12.14;22.93
59971;BME280;45825;45.434;9.116;2023-03-15T08:57:08;99929.59;;;12.05;22.48
59971;BME280;45825;45.434;9.116;2023-03-15T08:59:34;99939.44;;;12.15;22.79
59971;BME280;45825;45.434;9.116;2023-03-15T09:02:00;99942.69;;;12.19;22.31
59971;BME280;45825;45.434;9.116;2023-03-15T09:04:25;99929.84;;;12.14;21.52
59971;BME280;45825;45.434;9.116;2023-03-15T09:06:50;99935.31;;;12.24;22.30
59971;BME280;45825;45.434;9.116;2023-03-15T09:09:16;99928.56;;;12.33;22.79
59971;BME280;45825;45.434;9.116;2023-03-15T09:11:42;99925.41;;;12.28;21.82
59971;BME280;45825;45.434;9.116;2023-03-15T09:14:07;99925.91;;;12.33;21.88
59971;BME280;45825;45.434;9.116;2023-03-15T09:16:32;99935.03;;;12.42;21.79
59971;BME280;45825;45.434;9.116;2023-03-15T09:18:58;99939.03;;;12.48;21.70
59971;BME280;45825;45.434;9.116;2023-03-15T09:21:23;99941.22;;;12.54;22.22
59971;BME280;45825;45.434;9.116;2023-03-15T09:23:49;99942.81;;;12.56;21.84
59971;BME280;45825;45.434;9.116;2023-03-15T09:26:15;99943.78;;;12.55;20.80
59971;BME280;45825;45.434;9.116;2023-03-15T09:28:40;99940.50;;;12.65;21.01
59971;BME280;45825;45.434;9.116;2023-03-15T09:31:06;99949.66;;;12.72;22.38
59971;BME280;45825;45.434;9.116;2023-03-15T09:33:32;99954.44;;;12.80;21.67
59971;BME280;45825;45.434;9.116;2023-03-15T09:35:58;99950.94;;;12.92;20.83
59971;BME280;45825;45.434;9.116;2023-03-15T09:38:23;99949.97;;;13.06;20.34
59971;BME280;45825;45.434;9.116;2023-03-15T09:40:49;99954.88;;;13.11;20.40
59971;BME280;45825;45.434;9.116;2023-03-15T09:43:43;99956.81;;;13.09;19.41
59971;BME280;45825;45.434;9.116;2023-03-15T09:46:26;99934.59;;;13.24;19.72
59971;BME280;45825;45.434;9.116;2023-03-15T09:49:13;99943.53;;;13.35;19.45
59971;BME280;45825;45.434;9.116;2023-03-15T09:51:53;99934.41;;;13.52;20.55
59971;BME280;45825;45.434;9.116;2023-03-15T09:54:43;99941.38;;;13.77;19.97
59971;BME280;45825;45.434;9.116;2023-03-15T09:57:34;99942.63;;;13.96;20.23
59971;BME280;45825;45.434;9.116;2023-03-15T10:00:03;99952.78;;;14.02;18.97
59971;BME280;45825;45.434;9.116;2023-03-15T10:02:31;99945.84;;;14.13;18.94
59971;BME280;45825;45.434;9.116;2023-03-15T10:05:11;99948.16;;;14.29;19.44
59971;BME280;45825;45.434;9.116;2023-03-15T10:07:40;99953.84;;;14.47;18.34
59971;BME280;45825;45.434;9.116;2023-03-15T10:10:17;99954.22;;;14.65;17.69
59971;BME280;45825;45.434;9.116;2023-03-15T10:12:48;99950.78;;;14.87;16.67
59971;BME280;45825;45.434;9.116;2023-03-15T10:18:21;99961.75;;;15.49;15.31
59971;BME280;45825;45.434;9.116;2023-03-15T10:21:08;99950.91;;;16.60;15.42
59971;BME280;45825;45.434;9.116;2023-03-15T10:23:46;99953.06;;;17.68;15.08
59971;BME280;45825;45.434;9.116;2023-03-15T10:26:15;99961.91;;;18.18;14.68
59971;BME280;45825;45.434;9.116;2023-03-15T10:28:44;99954.81;;;18.94;14.20
59971;BME280;45825;45.434;9.116;2023-03-15T10:31:15;99966.97;;;19.99;15.00
59971;BME280;45825;45.434;9.116;2023-03-15T10:33:42;99982.28;;;20.15;14.89
59971;BME280;45825;45.434;9.116;2023-03-15T10:36:23;99954.75;;;20.94;14.99
59971;BME280;45825;45.434;9.116;2023-03-15T10:38:49;99968.97;;;21.54;13.38
59971;BME280;45825;45.434;9.116;2023-03-15T10:41:37;99964.72;;;21.95;11.95
59971;BME280;45825;45.434;9.116;2023-03-15T10:44:11;99966.53;;;22.60;14.04
59971;BME280;45825;45.434;9.116;2023-03-15T10:46:37;99955.31;;;22.49;11.59
59971;BME280;45825;45.434;9.116;2023-03-15T10:49:14;99972.22;;;23.46;11.50
59971;BME280;45825;45.434;9.116;2023-03-15T10:51:42;99968.88;;;24.37;12.49
59971;BME280;45825;45.434;9.116;2023-03-15T10:54:19;99963.31;;;24.53;10.76
59971;BME280;45825;45.434;9.116;2023-03-15T10:56:55;99981.66;;;24.35;11.43
59971;BME280;45825;45.434;9.116;2023-03-15T10:59:24;99973.34;;;25.20;10.33
59971;BME280;45825;45.434;9.116;2023-03-15T11:01:52;99973.84;;;24.93;9.91
59971;BME280;45825;45.434;9.116;2023-03-15T11:04:20;99963.94;;;26.11;10.40
59971;BME280;45825;45.434;9.116;2023-03-15T11:07:08;99974.59;;;26.48;10.14
59971;BME280;45825;45.434;9.116;2023-03-15T11:09:41;99971.91;;;26.83;9.84
59971;BME280;45825;45.434;9.116;2023-03-15T11:12:09;99948.44;;;27.26;9.38
59971;BME280;45825;45.434;9.116;2023-03-15T11:14:39;99942.50;;;27.57;8.95
59971;BME280;45825;45.434;9.116;2023-03-15T11:17:10;99953.47;;;27.42;8.86
59971;BME280;45825;45.434;9.116;2023-03-15T11:19:41;99947.34;;;27.82;8.82
59971;BME280;45825;45.434;9.116;2023-03-15T11:22:12;99940.31;;;27.19;8.40
59971;BME280;45825;45.434;9.116;2023-03-15T11:24:38;99949.22;;;28.22;9.24
59971;BME280;45825;45.434;9.116;2023-03-15T11:27:10;99944.81;;;28.41;8.74
59971;BME280;45825;45.434;9.116;2023-03-15T11:29:39;99962.66;;;29.28;8.14
59971;BME280;45825;45.434;9.116;2023-03-15T11:32:15;99941.53;;;28.98;12.43
59971;BME280;45825;45.434;9.116;2023-03-15T11:35:09;99942.09;;;29.60;8.03
59971;BME280;45825;45.434;9.116;2023-03-15T11:40:22;99929.56;;;30.16;7.67
59971;BME280;45825;45.434;9.116;2023-03-15T11:42:55;99920.16;;;30.19;7.57
59971;BME280;45825;45.434;9.116;2023-03-15T11:48:27;99921.78;;;30.83;10.25
59971;BME280;45825;45.434;9.116;2023-03-15T11:50:56;99919.59;;;31.53;7.79
59971;BME280;45825;45.434;9.116;2023-03-15T11:53:25;99919.19;;;30.88;8.67
59971;BME280;45825;45.434;9.116;2023-03-15T11:55:53;99915.06;;;31.89;7.05
59971;BME280;45825;45.434;9.116;2023-03-15T12:00:54;99907.75;;;32.37;6.90
59971;BME280;45825;45.434;9.116;2023-03-15T12:06:44;99910.69;;;32.24;6.98
59971;BME280;45825;45.434;9.116;2023-03-15T12:16:24;99890.94;;;32.93;6.90
59971;BME280;45825;45.434;9.116;2023-03-15T12:18:51;99888.97;;;34.20;5.91
59971;BME280;45825;45.434;9.116;2023-03-15T12:21:21;99875.41;;;34.48;6.28
59971;BME280;45825;45.434;9.116;2023-03-15T12:23:56;99874.44;;;34.37;5.85
59971;BME280;45825;45.434;9.116;2023-03-15T12:26:43;99875.69;;;34.51;5.88
59971;BME280;45825;45.434;9.116;2023-03-15T12:29:22;99858.78;;;34.27;5.82
59971;BME280;45825;45.434;9.116;2023-03-15T12:31:50;99856.38;;;34.13;5.90
59971;BME280;45825;45.434;9.116;2023-03-15T12:34:46;99855.47;;;33.05;5.94
59971;BME280;45825;45.434;9.116;2023-03-15T12:37:37;99861.84;;;33.96;6.26
59971;BME280;45825;45.434;9.116;2023-03-15T12:59:02;99827.44;;;35.72;6.82
59971;BME280;45825;45.434;9.116;2023-03-15T13:01:30;99824.53;;;35.51;5.21
59971;BME280;45825;45.434;9.116;2023-03-15T13:03:57;99828.41;;;35.99;5.09
59971;BME280;45825;45.434;9.116;2023-03-15T13:06:37;99826.47;;;36.47;5.35
59971;BME280;45825;45.434;9.116;2023-03-15T13:14:14;99822.22;;;37.03;5.37
59971;BME280;45825;45.434;9.116;2023-03-15T13:19:31;99837.28;;;36.16;6.90
59971;BME280;45825;45.434;9.116;2023-03-15T13:22:31;99836.53;;;36.31;4.63
59971;BME280;45825;45.434;9.116;2023-03-15T13:25:16;99826.03;;;36.82;6.27
59971;BME280;45825;45.434;9.116;2023-03-15T13:27:55;99829.25;;;36.68;5.37
59971;BME280;45825;45.434;9.116;2023-03-15T13:33:48;99830.72;;;35.74;5.16
59971;BME280;45825;45.434;9.116;2023-03-15T13:35:59;99836.41;;;36.69;4.99
59971;BME280;45825;45.434;9.116;2023-03-15T13:38:32;99828.25;;;36.16;4.47
59971;BME280;45825;45.434;9.116;2023-03-15T13:41:00;99824.56;;;35.94;5.82
59971;BME280;45825;45.434;9.116;2023-03-15T13:43:36;99820.69;;;35.85;5.27
59971;BME280;45825;45.434;9.116;2023-03-15T13:46:02;99822.50;;;35.69;4.95
59971;BME280;45825;45.434;9.116;2023-03-15T13:48:36;99829.63;;;35.37;5.35
59971;BME280;45825;45.434;9.116;2023-03-15T13:51:05;99825.72;;;35.01;5.20
59971;BME280;45825;45.434;9.116;2023-03-15T13:53:33;99827.84;;;34.44;5.21
59971;BME280;45825;45.434;9.116;2023-03-15T13:56:00;99830.28;;;34.90;5.00
59971;BME280;45825;45.434;9.116;2023-03-15T13:58:25;99813.06;;;34.89;5.42
59971;BME280;45825;45.434;9.116;2023-03-15T14:00:59;99830.94;;;35.02;5.55
59971;BME280;45825;45.434;9.116;2023-03-15T14:03:26;99820.13;;;35.13;5.18
59971;BME280;45825;45.434;9.116;2023-03-15T14:05:54;99826.00;;;34.49;5.31
59971;BME280;45825;45.434;9.116;2023-03-15T14:11:01;99827.75;;;33.25;7.13
59971;BME280;45825;45.434;9.116;2023-03-15T14:13:33;99821.38;;;34.50;6.04
59971;BME280;45825;45.434;9.116;2023-03-15T14:16:04;99821.94;;;33.05;5.97
59971;BME280;45825;45.434;9.116;2023-03-15T14:18:33;99829.41;;;33.26;6.80
59971;BME280;45825;45.434;9.116;2023-03-15T14:21:04;99816.41;;;33.46;5.54